CES2999 LFBO-UACC
Flight info
| Callsign | CES2999 |
|---|---|
| Flight time | N/A |
| Altitude | FL370 |
| Route | AMOLO BRUSC FJR Y25 SALIN Y341 BULTO UY342 PADKO TORTU IBRID TORPO KENEM TORTO ETIDA Q7 IVGOT L744 UDROS UM859 KARDE UN644 ROLIN N644 LAGAS M747 SUBUT T916 LEYLA N161 MASAV N55 OGANU P574 ARSAN L51 ABIGU N167 GOSPA P574 VETUB |
| Aircraft | A321/M-S/N |
Departure
| Time | N/A |
|---|---|
| Airport | Toulouse-Blagnac Airport (LFBO) |
Arrival
| Time | 2026-04-27 11:31 |
|---|---|
| Airport | Nursultan Nazarbayev International Airport (UACC) |
| Time | Latitude | Longitude | Altitude | Speed | Heading |
|---|---|---|---|---|---|
| 2026-04-27 10:18 | 47.75350 | 60.50963 | 36893 ft | 484 kts | 91° |
| 2026-04-27 10:18 | 47.75480 | 60.56012 | 36893 ft | 484 kts | 90° |
| 2026-04-27 10:19 | 47.75743 | 60.66158 | 36892 ft | 485 kts | 91° |
| 2026-04-27 10:19 | 47.76000 | 60.76282 | 36893 ft | 485 kts | 91° |
| 2026-04-27 10:20 | 47.76251 | 60.86453 | 36893 ft | 486 kts | 91° |
| 2026-04-27 10:20 | 47.76494 | 60.96705 | 36893 ft | 487 kts | 91° |
| 2026-04-27 10:21 | 47.76727 | 61.06934 | 36896 ft | 488 kts | 91° |
| 2026-04-27 10:21 | 47.76950 | 61.17139 | 36903 ft | 489 kts | 91° |
| 2026-04-27 10:22 | 47.77166 | 61.27381 | 36911 ft | 490 kts | 90° |
| 2026-04-27 10:22 | 47.77373 | 61.37677 | 36917 ft | 490 kts | 90° |
| 2026-04-27 10:23 | 47.77571 | 61.47929 | 36920 ft | 491 kts | 90° |
| 2026-04-27 10:23 | 47.77761 | 61.58243 | 36921 ft | 492 kts | 90° |
| 2026-04-27 10:24 | 47.77942 | 61.68597 | 36921 ft | 493 kts | 91° |
| 2026-04-27 10:24 | 47.78114 | 61.78903 | 36922 ft | 492 kts | 91° |
| 2026-04-27 10:25 | 47.78275 | 61.89171 | 36922 ft | 493 kts | 91° |
| 2026-04-27 10:25 | 47.78428 | 61.99418 | 36923 ft | 493 kts | 91° |
| 2026-04-27 10:26 | 47.78571 | 62.09713 | 36928 ft | 493 kts | 91° |
| 2026-04-27 10:26 | 47.78705 | 62.19970 | 36936 ft | 493 kts | 91° |
| 2026-04-27 10:27 | 47.78831 | 62.30238 | 36943 ft | 493 kts | 91° |
| 2026-04-27 10:27 | 47.78949 | 62.40584 | 36946 ft | 493 kts | 91° |
| 2026-04-27 10:28 | 47.79056 | 62.50859 | 36947 ft | 493 kts | 91° |
| 2026-04-27 10:28 | 47.79156 | 62.61101 | 36948 ft | 492 kts | 91° |
| 2026-04-27 10:29 | 47.79251 | 62.71350 | 36947 ft | 492 kts | 91° |
| 2026-04-27 10:29 | 47.79334 | 62.81654 | 36948 ft | 492 kts | 91° |
| 2026-04-27 10:30 | 47.80247 | 62.91817 | 36946 ft | 495 kts | 71° |
| 2026-04-27 10:30 | 47.81673 | 62.96518 | 36950 ft | 494 kts | 58° |
| 2026-04-27 10:30 | 47.83716 | 63.00675 | 36953 ft | 492 kts | 46° |
| 2026-04-27 10:31 | 47.86248 | 63.04078 | 36956 ft | 488 kts | 33° |
| 2026-04-27 10:31 | 47.89193 | 63.06658 | 36958 ft | 483 kts | 21° |
| 2026-04-27 10:31 | 47.95556 | 63.09834 | 36957 ft | 479 kts | 13° |
| 2026-04-27 10:32 | 48.01985 | 63.12676 | 36946 ft | 478 kts | 13° |
| 2026-04-27 10:32 | 48.08395 | 63.15643 | 36934 ft | 478 kts | 13° |
| 2026-04-27 10:33 | 48.14820 | 63.18673 | 36927 ft | 478 kts | 14° |
| 2026-04-27 10:33 | 48.21205 | 63.21705 | 36925 ft | 477 kts | 14° |
| 2026-04-27 10:34 | 48.27592 | 63.24770 | 36924 ft | 477 kts | 14° |
| 2026-04-27 10:34 | 48.33986 | 63.27854 | 36924 ft | 477 kts | 14° |
| 2026-04-27 10:35 | 48.40361 | 63.30933 | 36924 ft | 477 kts | 14° |
| 2026-04-27 10:35 | 48.46738 | 63.34017 | 36924 ft | 477 kts | 14° |
| 2026-04-27 10:36 | 48.53111 | 63.37107 | 36925 ft | 476 kts | 14° |
| 2026-04-27 10:36 | 48.59501 | 63.40212 | 36934 ft | 476 kts | 14° |
| 2026-04-27 10:37 | 48.65857 | 63.43307 | 36950 ft | 477 kts | 14° |
| 2026-04-27 10:37 | 48.72215 | 63.46412 | 36965 ft | 476 kts | 14° |
| 2026-04-27 10:38 | 48.78559 | 63.49527 | 36971 ft | 476 kts | 15° |
| 2026-04-27 10:38 | 48.84604 | 63.54035 | 36975 ft | 484 kts | 31° |
| 2026-04-27 10:39 | 48.89709 | 63.60920 | 36976 ft | 489 kts | 47° |
| 2026-04-27 10:39 | 48.93463 | 63.69685 | 36976 ft | 492 kts | 62° |
| 2026-04-27 10:40 | 48.96543 | 63.79140 | 36977 ft | 493 kts | 63° |
| 2026-04-27 10:40 | 48.99599 | 63.88559 | 36977 ft | 492 kts | 62° |
| 2026-04-27 10:41 | 49.02672 | 63.97913 | 36984 ft | 492 kts | 62° |
| 2026-04-27 10:41 | 49.05778 | 64.07358 | 36998 ft | 491 kts | 61° |
| 2026-04-27 10:42 | 49.08876 | 64.16777 | 37014 ft | 490 kts | 61° |
| 2026-04-27 10:42 | 49.11972 | 64.26176 | 37024 ft | 490 kts | 61° |
| 2026-04-27 10:43 | 49.15046 | 64.35512 | 37029 ft | 489 kts | 61° |
| 2026-04-27 10:43 | 49.18116 | 64.44926 | 37028 ft | 489 kts | 61° |
| 2026-04-27 10:44 | 49.21169 | 64.54345 | 37025 ft | 489 kts | 61° |
| 2026-04-27 10:44 | 49.24200 | 64.63735 | 37020 ft | 489 kts | 61° |
| 2026-04-27 10:45 | 49.27227 | 64.73168 | 37014 ft | 489 kts | 62° |
| 2026-04-27 10:45 | 49.30244 | 64.82596 | 37010 ft | 488 kts | 62° |
| 2026-04-27 10:46 | 49.33250 | 64.92011 | 37009 ft | 488 kts | 62° |
| 2026-04-27 10:46 | 49.36202 | 65.01526 | 37015 ft | 488 kts | 63° |
| 2026-04-27 10:47 | 49.39033 | 65.11174 | 37023 ft | 488 kts | 63° |
| 2026-04-27 10:47 | 49.41850 | 65.20796 | 37028 ft | 487 kts | 63° |
| 2026-04-27 10:48 | 49.44647 | 65.30348 | 37031 ft | 486 kts | 63° |
| 2026-04-27 10:48 | 49.47474 | 65.40023 | 37031 ft | 487 kts | 63° |
| 2026-04-27 10:49 | 49.50275 | 65.49638 | 37031 ft | 486 kts | 63° |
| 2026-04-27 10:49 | 49.53062 | 65.59245 | 37031 ft | 486 kts | 62° |
| 2026-04-27 10:50 | 49.55841 | 65.68869 | 37031 ft | 485 kts | 63° |
| 2026-04-27 10:50 | 49.58605 | 65.78507 | 37031 ft | 485 kts | 63° |
| 2026-04-27 10:51 | 49.61354 | 65.88111 | 37031 ft | 485 kts | 63° |
| 2026-04-27 10:51 | 49.64094 | 65.97706 | 37031 ft | 485 kts | 63° |
| 2026-04-27 10:52 | 49.66830 | 66.07320 | 37031 ft | 484 kts | 63° |
| 2026-04-27 10:52 | 49.69549 | 66.16905 | 37031 ft | 484 kts | 63° |
| 2026-04-27 10:53 | 49.73614 | 66.31312 | 37031 ft | 484 kts | 63° |
| 2026-04-27 10:54 | 49.76357 | 66.40921 | 37031 ft | 483 kts | 62° |
| 2026-04-27 10:54 | 49.79136 | 66.50511 | 37031 ft | 483 kts | 62° |
| 2026-04-27 10:55 | 49.81903 | 66.60089 | 37030 ft | 483 kts | 62° |
| 2026-04-27 10:55 | 49.84652 | 66.69659 | 37031 ft | 483 kts | 63° |
| 2026-04-27 10:56 | 49.87399 | 66.79287 | 37031 ft | 482 kts | 63° |
| 2026-04-27 10:56 | 49.90139 | 66.88901 | 37031 ft | 481 kts | 62° |
| 2026-04-27 10:57 | 49.92870 | 66.98500 | 37031 ft | 481 kts | 62° |
| 2026-04-27 10:57 | 49.95592 | 67.08119 | 37031 ft | 480 kts | 62° |
| 2026-04-27 10:58 | 49.98056 | 67.17841 | 37031 ft | 482 kts | 66° |
| 2026-04-27 10:58 | 50.00281 | 67.27709 | 37030 ft | 482 kts | 66° |
| 2026-04-27 10:59 | 50.02512 | 67.37651 | 37031 ft | 483 kts | 66° |
| 2026-04-27 10:59 | 50.04754 | 67.47645 | 37031 ft | 483 kts | 66° |
| 2026-04-27 11:00 | 50.08092 | 67.62562 | 37030 ft | 482 kts | 66° |
| 2026-04-27 11:00 | 50.10297 | 67.72486 | 37032 ft | 482 kts | 67° |
| 2026-04-27 11:01 | 50.12525 | 67.82453 | 37031 ft | 482 kts | 66° |
| 2026-04-27 11:01 | 50.14726 | 67.92375 | 37031 ft | 481 kts | 66° |
| 2026-04-27 11:02 | 50.16907 | 68.02303 | 37033 ft | 481 kts | 66° |
| 2026-04-27 11:02 | 50.19089 | 68.12287 | 37039 ft | 481 kts | 66° |
| 2026-04-27 11:03 | 50.21250 | 68.22241 | 37047 ft | 481 kts | 66° |
| 2026-04-27 11:03 | 50.23503 | 68.32125 | 37054 ft | 480 kts | 64° |
| 2026-04-27 11:04 | 50.25926 | 68.41924 | 37056 ft | 480 kts | 64° |
| 2026-04-27 11:04 | 50.28358 | 68.51753 | 37058 ft | 479 kts | 64° |
| 2026-04-27 11:05 | 50.30769 | 68.61557 | 37058 ft | 479 kts | 64° |
| 2026-04-27 11:05 | 50.33166 | 68.71375 | 37057 ft | 480 kts | 64° |
| 2026-04-27 11:06 | 50.35549 | 68.81195 | 37057 ft | 479 kts | 64° |
| 2026-04-27 11:06 | 50.37936 | 68.91057 | 37057 ft | 479 kts | 64° |
| 2026-04-27 11:07 | 50.40316 | 69.00917 | 37061 ft | 478 kts | 64° |
| 2026-04-27 11:07 | 50.42687 | 69.10776 | 37069 ft | 478 kts | 64° |
| 2026-04-27 11:08 | 50.45057 | 69.20676 | 37077 ft | 477 kts | 64° |
| 2026-04-27 11:08 | 50.47391 | 69.30512 | 37082 ft | 477 kts | 64° |
| 2026-04-27 11:09 | 50.49705 | 69.40329 | 37085 ft | 476 kts | 64° |
| 2026-04-27 11:09 | 50.52026 | 69.50187 | 37086 ft | 476 kts | 64° |
| 2026-04-27 11:10 | 50.54334 | 69.60027 | 37086 ft | 476 kts | 64° |
| 2026-04-27 11:10 | 50.56636 | 69.69895 | 37085 ft | 476 kts | 65° |
| 2026-04-27 11:11 | 50.58928 | 69.79785 | 37086 ft | 476 kts | 65° |
| 2026-04-27 11:11 | 50.61214 | 69.89672 | 37086 ft | 475 kts | 65° |
| 2026-04-27 11:12 | 50.63490 | 69.99540 | 37086 ft | 475 kts | 65° |
| 2026-04-27 11:12 | 50.65760 | 70.09424 | 37086 ft | 474 kts | 65° |
| 2026-04-27 11:13 | 50.68007 | 70.19278 | 36622 ft | 467 kts | 64° |
| 2026-04-27 11:13 | 50.69168 | 70.24079 | 35833 ft | 467 kts | 62° |
| 2026-04-27 11:13 | 50.70386 | 70.28864 | 34857 ft | 465 kts | 61° |
| 2026-04-27 11:14 | 50.71599 | 70.33587 | 33374 ft | 466 kts | 61° |
| 2026-04-27 11:14 | 50.72839 | 70.38353 | 31499 ft | 473 kts | 62° |
| 2026-04-27 11:14 | 50.74102 | 70.43199 | 29408 ft | 481 kts | 63° |
| 2026-04-27 11:14 | 50.75364 | 70.48091 | 27710 ft | 478 kts | 63° |
| 2026-04-27 11:15 | 50.76621 | 70.53009 | 26179 ft | 480 kts | 64° |
| 2026-04-27 11:15 | 50.77876 | 70.57938 | 24676 ft | 482 kts | 64° |
| 2026-04-27 11:15 | 50.79138 | 70.62905 | 23581 ft | 482 kts | 64° |
| 2026-04-27 11:15 | 50.80384 | 70.67826 | 22786 ft | 475 kts | 65° |
| 2026-04-27 11:16 | 50.81612 | 70.72701 | 22296 ft | 472 kts | 65° |
| 2026-04-27 11:16 | 50.82837 | 70.77561 | 22101 ft | 468 kts | 65° |
| 2026-04-27 11:16 | 50.84038 | 70.82330 | 22093 ft | 451 kts | 65° |
| 2026-04-27 11:16 | 50.85174 | 70.86856 | 22093 ft | 421 kts | 65° |
| 2026-04-27 11:17 | 50.86240 | 70.91088 | 22058 ft | 402 kts | 65° |
| 2026-04-27 11:17 | 50.87271 | 70.95171 | 21686 ft | 394 kts | 64° |
| 2026-04-27 11:17 | 50.88292 | 70.99220 | 21148 ft | 391 kts | 65° |
| 2026-04-27 11:17 | 50.89298 | 71.03225 | 20599 ft | 388 kts | 65° |
| 2026-04-27 11:18 | 50.90493 | 71.07038 | 20031 ft | 379 kts | 49° |
| 2026-04-27 11:18 | 50.92413 | 71.09791 | 19474 ft | 365 kts | 26° |
| 2026-04-27 11:18 | 50.94749 | 71.11342 | 18949 ft | 357 kts | 15° |
| 2026-04-27 11:18 | 50.97104 | 71.12604 | 18364 ft | 355 kts | 14° |
| 2026-04-27 11:19 | 50.99454 | 71.13854 | 17779 ft | 354 kts | 15° |
| 2026-04-27 11:19 | 51.01776 | 71.15116 | 17213 ft | 352 kts | 15° |
| 2026-04-27 11:19 | 51.04101 | 71.16403 | 16641 ft | 350 kts | 16° |
| 2026-04-27 11:19 | 51.06406 | 71.17690 | 16067 ft | 348 kts | 16° |
| 2026-04-27 11:20 | 51.08702 | 71.18978 | 15508 ft | 346 kts | 16° |
| 2026-04-27 11:20 | 51.10995 | 71.20266 | 15161 ft | 343 kts | 16° |
| 2026-04-27 11:20 | 51.13265 | 71.21537 | 15102 ft | 345 kts | 16° |
| 2026-04-27 11:20 | 51.15551 | 71.22822 | 15097 ft | 346 kts | 16° |
| 2026-04-27 11:21 | 51.17831 | 71.24110 | 15038 ft | 342 kts | 16° |
| 2026-04-27 11:21 | 51.20073 | 71.25384 | 14563 ft | 340 kts | 17° |
| 2026-04-27 11:21 | 51.22194 | 71.27149 | 13920 ft | 346 kts | 33° |
| 2026-04-27 11:21 | 51.23940 | 71.29824 | 13431 ft | 345 kts | 47° |
| 2026-04-27 11:22 | 51.25454 | 71.32826 | 13066 ft | 338 kts | 49° |
| 2026-04-27 11:22 | 51.26889 | 71.35780 | 12705 ft | 332 kts | 49° |
| 2026-04-27 11:22 | 51.28313 | 71.38699 | 12308 ft | 326 kts | 49° |
| 2026-04-27 11:22 | 51.29717 | 71.41548 | 11925 ft | 321 kts | 49° |
| 2026-04-27 11:23 | 51.31109 | 71.44355 | 11549 ft | 316 kts | 49° |
| 2026-04-27 11:23 | 51.32481 | 71.47118 | 11200 ft | 310 kts | 49° |
| 2026-04-27 11:23 | 51.33804 | 71.49825 | 11104 ft | 303 kts | 53° |
| 2026-04-27 11:23 | 51.34615 | 71.52972 | 11007 ft | 304 kts | 82° |
| 2026-04-27 11:24 | 51.34366 | 71.56293 | 10597 ft | 302 kts | 114° |
| 2026-04-27 11:24 | 51.33136 | 71.58966 | 10176 ft | 295 kts | 140° |
| 2026-04-27 11:24 | 51.31519 | 71.60994 | 9840 ft | 289 kts | 145° |
| 2026-04-27 11:24 | 51.29927 | 71.62965 | 9502 ft | 285 kts | 142° |
| 2026-04-27 11:25 | 51.28420 | 71.65026 | 9172 ft | 281 kts | 140° |
| 2026-04-27 11:25 | 51.26993 | 71.67187 | 8898 ft | 274 kts | 137° |
| 2026-04-27 11:25 | 51.25645 | 71.69348 | 8634 ft | 268 kts | 136° |
| 2026-04-27 11:25 | 51.24335 | 71.71468 | 8330 ft | 264 kts | 136° |
| 2026-04-27 11:26 | 51.23045 | 71.73555 | 8118 ft | 256 kts | 137° |
| 2026-04-27 11:26 | 51.21717 | 71.75348 | 8075 ft | 237 kts | 157° |
| 2026-04-27 11:26 | 51.20148 | 71.75709 | 7844 ft | 224 kts | 195° |
| 2026-04-27 11:26 | 51.18794 | 71.74437 | 7027 ft | 238 kts | 230° |
| 2026-04-27 11:27 | 51.17808 | 71.72213 | 5995 ft | 251 kts | 237° |
| 2026-04-27 11:27 | 51.16772 | 71.69934 | 5262 ft | 249 kts | 232° |
| 2026-04-27 11:27 | 51.15654 | 71.67815 | 4564 ft | 246 kts | 228° |
| 2026-04-27 11:27 | 51.14499 | 71.65834 | 4057 ft | 236 kts | 227° |
| 2026-04-27 11:28 | 51.13387 | 71.63997 | 3822 ft | 217 kts | 225° |
| 2026-04-27 11:28 | 51.12349 | 71.62355 | 3598 ft | 201 kts | 225° |
| 2026-04-27 11:28 | 51.11366 | 71.60827 | 3326 ft | 190 kts | 224° |
| 2026-04-27 11:28 | 51.10427 | 71.59373 | 3072 ft | 183 kts | 225° |
| 2026-04-27 11:29 | 51.09531 | 71.57978 | 2942 ft | 165 kts | 224° |
| 2026-04-27 11:29 | 51.08738 | 71.56745 | 2714 ft | 152 kts | 225° |
| 2026-04-27 11:29 | 51.08005 | 71.55602 | 2482 ft | 138 kts | 226° |
| 2026-04-27 11:29 | 51.07344 | 71.54571 | 2274 ft | 129 kts | 225° |
| 2026-04-27 11:30 | 51.06695 | 71.53557 | 2095 ft | 128 kts | 223° |
| 2026-04-27 11:30 | 51.06052 | 71.52552 | 1918 ft | 128 kts | 221° |
| 2026-04-27 11:30 | 51.05409 | 71.51548 | 1743 ft | 127 kts | 221° |
| 2026-04-27 11:30 | 51.04764 | 71.50544 | 1575 ft | 127 kts | 224° |
| 2026-04-27 11:31 | 51.04127 | 71.49548 | 1399 ft | 125 kts | 225° |
| 2026-04-27 11:31 | 51.03505 | 71.48574 | 1223 ft | 122 kts | 226° |
| 2026-04-27 11:31 | 51.02921 | 71.47656 | 1165 ft | 100 kts | 225° |
| 2026-04-27 11:31 | 51.02547 | 71.47075 | 1168 ft | 48 kts | 224° |
| 2026-04-27 11:32 | 51.02363 | 71.46793 | 1168 ft | 29 kts | 220° |
| 2026-04-27 11:32 | 51.02271 | 71.46642 | 1168 ft | 18 kts | 227° |
| 2026-04-27 11:32 | 51.02181 | 71.46492 | 1168 ft | 19 kts | 226° |
| 2026-04-27 11:32 | 51.02088 | 71.46343 | 1168 ft | 19 kts | 224° |
| 2026-04-27 11:33 | 51.01988 | 71.46196 | 1168 ft | 20 kts | 223° |
| 2026-04-27 11:33 | 51.01883 | 71.46042 | 1168 ft | 21 kts | 224° |
| 2026-04-27 11:33 | 51.01780 | 71.45876 | 1170 ft | 20 kts | 225° |
| 2026-04-27 11:33 | 51.01697 | 71.45740 | 1171 ft | 13 kts | 238° |
| 2026-04-27 11:34 | 51.01724 | 71.45607 | 1170 ft | 12 kts | 314° |
| 2026-04-27 11:34 | 51.01767 | 71.45536 | 1168 ft | 3 kts | 315° |
| 2026-04-27 11:34 | 51.01787 | 71.45511 | 1168 ft | 5 kts | 334° |
| 2026-04-27 11:34 | 51.01832 | 71.45509 | 1168 ft | 8 kts | 20° |
| 2026-04-27 11:35 | 51.01877 | 71.45567 | 1169 ft | 9 kts | 45° |
| 2026-04-27 11:35 | 51.01924 | 71.45644 | 1169 ft | 7 kts | 46° |
| 2026-04-27 11:35 | 51.01969 | 71.45673 | 1168 ft | 9 kts | 351° |
| 2026-04-27 11:35 | 51.02018 | 71.45611 | 1168 ft | 8 kts | 314° |
| 2026-04-27 11:36 | 51.02052 | 71.45556 | 1168 ft | 3 kts | 314° |
| 2026-04-27 11:36 | 51.02062 | 71.45540 | 1168 ft | 0 kts | 314° |
| 2026-04-27 11:36 | 51.02071 | 71.45528 | 1168 ft | 3 kts | 332° |
| 2026-04-27 11:36 | 51.02104 | 71.45535 | 1168 ft | 6 kts | 28° |
| 2026-04-27 11:37 | 51.02118 | 71.45552 | 1168 ft | 1 kts | 43° |
| 2026-04-27 11:37 | 51.02121 | 71.45557 | 1168 ft | 0 kts | 44° |